sensor_id;sensor_type;location;lat;lon;timestamp;P1;durP1;ratioP1;P2;durP2;ratioP2
12356;SDS011;6243;51.244;6.774;2023-02-11T00:00:53;21.47;;;15.83;;
12356;SDS011;6243;51.244;6.774;2023-02-11T00:03:18;20.30;;;15.73;;
12356;SDS011;6243;51.244;6.774;2023-02-11T00:05:44;23.80;;;16.47;;
12356;SDS011;6243;51.244;6.774;2023-02-11T00:08:09;21.93;;;16.97;;
12356;SDS011;6243;51.244;6.774;2023-02-11T00:10:35;23.13;;;17.43;;
12356;SDS011;6243;51.244;6.774;2023-02-11T00:13:02;22.07;;;16.20;;
12356;SDS011;6243;51.244;6.774;2023-02-11T00:15:28;23.43;;;16.77;;
12356;SDS011;6243;51.244;6.774;2023-02-11T00:17:53;24.33;;;16.53;;
12356;SDS011;6243;51.244;6.774;2023-02-11T00:20:19;21.10;;;16.27;;
12356;SDS011;6243;51.244;6.774;2023-02-11T00:22:44;24.60;;;16.23;;
12356;SDS011;6243;51.244;6.774;2023-02-11T00:25:10;21.33;;;15.63;;
12356;SDS011;6243;51.244;6.774;2023-02-11T00:27:36;23.57;;;16.37;;
12356;SDS011;6243;51.244;6.774;2023-02-11T00:30:03;26.93;;;17.77;;
12356;SDS011;6243;51.244;6.774;2023-02-11T00:32:30;30.27;;;18.03;;
12356;SDS011;6243;51.244;6.774;2023-02-11T00:34:55;25.53;;;18.63;;
12356;SDS011;6243;51.244;6.774;2023-02-11T00:37:21;24.20;;;17.17;;
12356;SDS011;6243;51.244;6.774;2023-02-11T00:39:46;24.63;;;16.93;;
12356;SDS011;6243;51.244;6.774;2023-02-11T00:42:12;24.87;;;17.17;;
12356;SDS011;6243;51.244;6.774;2023-02-11T00:44:38;22.00;;;16.00;;
12356;SDS011;6243;51.244;6.774;2023-02-11T00:47:05;21.97;;;16.63;;
12356;SDS011;6243;51.244;6.774;2023-02-11T00:49:31;23.40;;;16.77;;
12356;SDS011;6243;51.244;6.774;2023-02-11T00:51:56;23.53;;;16.93;;
12356;SDS011;6243;51.244;6.774;2023-02-11T00:54:22;22.63;;;17.43;;
12356;SDS011;6243;51.244;6.774;2023-02-11T00:56:48;23.37;;;17.83;;
12356;SDS011;6243;51.244;6.774;2023-02-11T00:59:13;24.60;;;17.00;;
12356;SDS011;6243;51.244;6.774;2023-02-11T01:01:39;26.30;;;18.00;;
12356;SDS011;6243;51.244;6.774;2023-02-11T01:04:06;23.40;;;17.00;;
12356;SDS011;6243;51.244;6.774;2023-02-11T01:06:31;22.03;;;17.33;;
12356;SDS011;6243;51.244;6.774;2023-02-11T01:08:57;22.73;;;17.47;;
12356;SDS011;6243;51.244;6.774;2023-02-11T01:11:22;23.97;;;17.30;;
12356;SDS011;6243;51.244;6.774;2023-02-11T01:13:48;26.53;;;17.07;;
12356;SDS011;6243;51.244;6.774;2023-02-11T01:16:14;23.23;;;16.87;;
12356;SDS011;6243;51.244;6.774;2023-02-11T01:18:40;25.50;;;16.70;;
12356;SDS011;6243;51.244;6.774;2023-02-11T01:21:07;25.67;;;17.60;;
12356;SDS011;6243;51.244;6.774;2023-02-11T01:23:33;24.83;;;18.20;;
12356;SDS011;6243;51.244;6.774;2023-02-11T01:25:58;24.13;;;17.93;;
12356;SDS011;6243;51.244;6.774;2023-02-11T01:28:25;23.00;;;17.23;;
12356;SDS011;6243;51.244;6.774;2023-02-11T01:30:52;22.87;;;17.87;;
12356;SDS011;6243;51.244;6.774;2023-02-11T01:33:18;23.00;;;17.63;;
12356;SDS011;6243;51.244;6.774;2023-02-11T01:35:44;23.17;;;17.30;;
12356;SDS011;6243;51.244;6.774;2023-02-11T01:38:13;23.80;;;17.13;;
12356;SDS011;6243;51.244;6.774;2023-02-11T01:40:45;28.57;;;17.90;;
12356;SDS011;6243;51.244;6.774;2023-02-11T01:43:11;23.13;;;17.83;;
12356;SDS011;6243;51.244;6.774;2023-02-11T01:45:52;22.53;;;17.23;;
12356;SDS011;6243;51.244;6.774;2023-02-11T01:48:23;22.70;;;17.07;;
12356;SDS011;6243;51.244;6.774;2023-02-11T01:50:51;24.87;;;17.47;;
12356;SDS011;6243;51.244;6.774;2023-02-11T01:53:22;23.77;;;17.47;;
12356;SDS011;6243;51.244;6.774;2023-02-11T01:55:49;26.73;;;17.93;;
12356;SDS011;6243;51.244;6.774;2023-02-11T01:58:16;21.77;;;15.67;;
12356;SDS011;6243;51.244;6.774;2023-02-11T02:00:42;21.80;;;16.27;;
12356;SDS011;6243;51.244;6.774;2023-02-11T02:03:09;24.30;;;16.37;;
12356;SDS011;6243;51.244;6.774;2023-02-11T02:05:37;19.27;;;15.23;;
12356;SDS011;6243;51.244;6.774;2023-02-11T02:08:09;23.43;;;16.93;;
12356;SDS011;6243;51.244;6.774;2023-02-11T02:10:39;22.60;;;16.57;;
12356;SDS011;6243;51.244;6.774;2023-02-11T02:13:07;19.70;;;15.53;;
12356;SDS011;6243;51.244;6.774;2023-02-11T02:15:33;25.07;;;17.93;;
12356;SDS011;6243;51.244;6.774;2023-02-11T02:18:07;23.93;;;17.50;;
12356;SDS011;6243;51.244;6.774;2023-02-11T02:30:04;18.97;;;14.90;;
12356;SDS011;6243;51.244;6.774;2023-02-11T02:33:06;25.13;;;15.50;;
12356;SDS011;6243;51.244;6.774;2023-02-11T02:35:55;27.03;;;16.83;;
12356;SDS011;6243;51.244;6.774;2023-02-11T02:38:30;21.57;;;15.40;;
12356;SDS011;6243;51.244;6.774;2023-02-11T02:41:01;18.90;;;14.67;;
12356;SDS011;6243;51.244;6.774;2023-02-11T02:43:31;21.53;;;15.67;;
12356;SDS011;6243;51.244;6.774;2023-02-11T02:46:08;21.13;;;14.90;;
12356;SDS011;6243;51.244;6.774;2023-02-11T02:48:36;23.03;;;16.20;;
12356;SDS011;6243;51.244;6.774;2023-02-11T02:51:05;20.63;;;14.27;;
12356;SDS011;6243;51.244;6.774;2023-02-11T02:53:42;21.47;;;14.97;;
12356;SDS011;6243;51.244;6.774;2023-02-11T02:56:12;23.87;;;14.87;;
12356;SDS011;6243;51.244;6.774;2023-02-11T02:58:53;19.27;;;14.00;;
12356;SDS011;6243;51.244;6.774;2023-02-11T03:01:33;22.13;;;15.63;;
12356;SDS011;6243;51.244;6.774;2023-02-11T03:04:08;20.43;;;14.57;;
12356;SDS011;6243;51.244;6.774;2023-02-11T03:06:44;19.97;;;14.43;;
12356;SDS011;6243;51.244;6.774;2023-02-11T03:09:15;19.87;;;14.27;;
12356;SDS011;6243;51.244;6.774;2023-02-11T03:11:45;21.50;;;15.63;;
12356;SDS011;6243;51.244;6.774;2023-02-11T03:14:11;20.10;;;14.13;;
12356;SDS011;6243;51.244;6.774;2023-02-11T03:16:41;24.23;;;15.10;;
12356;SDS011;6243;51.244;6.774;2023-02-11T03:19:10;20.10;;;14.87;;
12356;SDS011;6243;51.244;6.774;2023-02-11T03:21:39;23.80;;;14.67;;
12356;SDS011;6243;51.244;6.774;2023-02-11T03:24:07;20.37;;;14.57;;
12356;SDS011;6243;51.244;6.774;2023-02-11T03:26:39;21.30;;;14.33;;
12356;SDS011;6243;51.244;6.774;2023-02-11T03:29:09;21.43;;;14.67;;
12356;SDS011;6243;51.244;6.774;2023-02-11T03:31:41;20.53;;;14.50;;
12356;SDS011;6243;51.244;6.774;2023-02-11T03:34:13;18.83;;;14.03;;
12356;SDS011;6243;51.244;6.774;2023-02-11T03:36:43;18.47;;;13.77;;
12356;SDS011;6243;51.244;6.774;2023-02-11T03:39:15;21.87;;;12.80;;
12356;SDS011;6243;51.244;6.774;2023-02-11T03:41:44;20.20;;;13.50;;
12356;SDS011;6243;51.244;6.774;2023-02-11T03:44:13;17.77;;;13.63;;
12356;SDS011;6243;51.244;6.774;2023-02-11T03:46:41;22.23;;;14.30;;
12356;SDS011;6243;51.244;6.774;2023-02-11T03:49:14;19.47;;;14.10;;
12356;SDS011;6243;51.244;6.774;2023-02-11T03:51:43;20.10;;;14.77;;
12356;SDS011;6243;51.244;6.774;2023-02-11T03:54:10;20.53;;;14.50;;
12356;SDS011;6243;51.244;6.774;2023-02-11T03:56:42;22.50;;;15.10;;
12356;SDS011;6243;51.244;6.774;2023-02-11T03:59:16;20.53;;;14.60;;
12356;SDS011;6243;51.244;6.774;2023-02-11T04:01:42;21.00;;;14.90;;
12356;SDS011;6243;51.244;6.774;2023-02-11T04:04:07;22.47;;;14.33;;
12356;SDS011;6243;51.244;6.774;2023-02-11T04:06:34;19.10;;;14.60;;
12356;SDS011;6243;51.244;6.774;2023-02-11T04:09:00;20.13;;;14.63;;
12356;SDS011;6243;51.244;6.774;2023-02-11T04:11:25;22.77;;;14.97;;
12356;SDS011;6243;51.244;6.774;2023-02-11T04:13:51;21.87;;;14.50;;
12356;SDS011;6243;51.244;6.774;2023-02-11T04:16:16;21.30;;;14.90;;
12356;SDS011;6243;51.244;6.774;2023-02-11T04:18:42;20.80;;;15.30;;
12356;SDS011;6243;51.244;6.774;2023-02-11T04:21:07;18.97;;;14.40;;
12356;SDS011;6243;51.244;6.774;2023-02-11T04:23:34;25.40;;;15.93;;
12356;SDS011;6243;51.244;6.774;2023-02-11T04:26:00;23.00;;;14.70;;
12356;SDS011;6243;51.244;6.774;2023-02-11T04:28:25;21.47;;;13.93;;
12356;SDS011;6243;51.244;6.774;2023-02-11T04:30:51;28.67;;;16.73;;
12356;SDS011;6243;51.244;6.774;2023-02-11T04:33:17;24.37;;;15.27;;
12356;SDS011;6243;51.244;6.774;2023-02-11T04:35:42;21.93;;;15.00;;
12356;SDS011;6243;51.244;6.774;2023-02-11T04:38:08;20.63;;;14.70;;
12356;SDS011;6243;51.244;6.774;2023-02-11T04:40:35;21.07;;;14.37;;
12356;SDS011;6243;51.244;6.774;2023-02-11T04:43:00;23.40;;;15.23;;
12356;SDS011;6243;51.244;6.774;2023-02-11T04:45:25;23.50;;;14.80;;
12356;SDS011;6243;51.244;6.774;2023-02-11T04:47:51;22.43;;;15.03;;
12356;SDS011;6243;51.244;6.774;2023-02-11T04:50:17;22.87;;;15.67;;
12356;SDS011;6243;51.244;6.774;2023-02-11T04:52:42;18.37;;;14.70;;
12356;SDS011;6243;51.244;6.774;2023-02-11T04:55:08;18.93;;;14.37;;
12356;SDS011;6243;51.244;6.774;2023-02-11T04:57:34;20.40;;;14.50;;
12356;SDS011;6243;51.244;6.774;2023-02-11T05:00:00;20.30;;;14.20;;
12356;SDS011;6243;51.244;6.774;2023-02-11T05:02:26;22.83;;;15.77;;
12356;SDS011;6243;51.244;6.774;2023-02-11T05:04:51;23.23;;;15.60;;
12356;SDS011;6243;51.244;6.774;2023-02-11T05:07:17;27.37;;;15.80;;
12356;SDS011;6243;51.244;6.774;2023-02-11T05:09:42;24.07;;;15.30;;
12356;SDS011;6243;51.244;6.774;2023-02-11T05:12:08;22.87;;;15.33;;
12356;SDS011;6243;51.244;6.774;2023-02-11T05:14:35;23.70;;;14.70;;
12356;SDS011;6243;51.244;6.774;2023-02-11T05:17:00;23.23;;;15.83;;
12356;SDS011;6243;51.244;6.774;2023-02-11T05:19:26;24.13;;;14.10;;
12356;SDS011;6243;51.244;6.774;2023-02-11T05:21:51;27.07;;;16.23;;
12356;SDS011;6243;51.244;6.774;2023-02-11T05:24:16;21.10;;;15.80;;
12356;SDS011;6243;51.244;6.774;2023-02-11T05:26:42;20.90;;;14.97;;
12356;SDS011;6243;51.244;6.774;2023-02-11T05:29:07;23.00;;;15.63;;
12356;SDS011;6243;51.244;6.774;2023-02-11T05:31:34;25.77;;;16.03;;
12356;SDS011;6243;51.244;6.774;2023-02-11T05:34:00;24.10;;;16.47;;
12356;SDS011;6243;51.244;6.774;2023-02-11T05:36:25;22.73;;;14.87;;
12356;SDS011;6243;51.244;6.774;2023-02-11T05:38:51;27.73;;;16.10;;
12356;SDS011;6243;51.244;6.774;2023-02-11T05:41:16;24.70;;;15.83;;
12356;SDS011;6243;51.244;6.774;2023-02-11T05:43:42;25.60;;;16.87;;
12356;SDS011;6243;51.244;6.774;2023-02-11T05:46:07;25.20;;;16.93;;
12356;SDS011;6243;51.244;6.774;2023-02-11T05:48:34;26.70;;;15.97;;
12356;SDS011;6243;51.244;6.774;2023-02-11T05:50:59;25.03;;;17.20;;
12356;SDS011;6243;51.244;6.774;2023-02-11T05:53:25;24.00;;;16.40;;
12356;SDS011;6243;51.244;6.774;2023-02-11T05:55:50;21.47;;;16.17;;
12356;SDS011;6243;51.244;6.774;2023-02-11T05:58:16;27.03;;;16.53;;
12356;SDS011;6243;51.244;6.774;2023-02-11T06:00:41;25.53;;;16.30;;
12356;SDS011;6243;51.244;6.774;2023-02-11T06:03:07;26.70;;;15.97;;
12356;SDS011;6243;51.244;6.774;2023-02-11T06:05:34;27.00;;;16.20;;
12356;SDS011;6243;51.244;6.774;2023-02-11T06:07:59;24.83;;;16.00;;
12356;SDS011;6243;51.244;6.774;2023-02-11T06:10:25;27.77;;;16.67;;
12356;SDS011;6243;51.244;6.774;2023-02-11T06:12:51;25.70;;;16.37;;
12356;SDS011;6243;51.244;6.774;2023-02-11T06:15:17;23.63;;;16.93;;
12356;SDS011;6243;51.244;6.774;2023-02-11T06:17:42;24.87;;;16.10;;
12356;SDS011;6243;51.244;6.774;2023-02-11T06:20:08;25.23;;;15.80;;
12356;SDS011;6243;51.244;6.774;2023-02-11T06:22:36;24.80;;;17.77;;
12356;SDS011;6243;51.244;6.774;2023-02-11T06:25:02;27.17;;;17.10;;
12356;SDS011;6243;51.244;6.774;2023-02-11T06:27:27;27.30;;;16.97;;
12356;SDS011;6243;51.244;6.774;2023-02-11T06:29:53;24.87;;;16.67;;
12356;SDS011;6243;51.244;6.774;2023-02-11T06:32:18;24.30;;;15.97;;
12356;SDS011;6243;51.244;6.774;2023-02-11T06:34:45;32.27;;;17.10;;
12356;SDS011;6243;51.244;6.774;2023-02-11T06:37:10;28.60;;;17.10;;
12356;SDS011;6243;51.244;6.774;2023-02-11T06:39:37;28.43;;;16.70;;
12356;SDS011;6243;51.244;6.774;2023-02-11T06:42:02;22.93;;;16.17;;
12356;SDS011;6243;51.244;6.774;2023-02-11T06:44:28;27.40;;;17.10;;
12356;SDS011;6243;51.244;6.774;2023-02-11T06:46:54;26.50;;;16.60;;
12356;SDS011;6243;51.244;6.774;2023-02-11T06:49:19;24.40;;;15.50;;
12356;SDS011;6243;51.244;6.774;2023-02-11T06:51:45;25.67;;;16.47;;
12356;SDS011;6243;51.244;6.774;2023-02-11T06:54:11;23.33;;;16.67;;
12356;SDS011;6243;51.244;6.774;2023-02-11T06:56:39;23.70;;;15.60;;
12356;SDS011;6243;51.244;6.774;2023-02-11T06:59:05;24.90;;;16.50;;
12356;SDS011;6243;51.244;6.774;2023-02-11T07:01:30;34.57;;;16.87;;
12356;SDS011;6243;51.244;6.774;2023-02-11T07:03:56;23.17;;;15.60;;
12356;SDS011;6243;51.244;6.774;2023-02-11T07:06:22;23.63;;;15.17;;
12356;SDS011;6243;51.244;6.774;2023-02-11T07:08:49;24.43;;;15.73;;
12356;SDS011;6243;51.244;6.774;2023-02-11T07:11:15;26.77;;;16.53;;
12356;SDS011;6243;51.244;6.774;2023-02-11T07:13:44;24.10;;;15.80;;
12356;SDS011;6243;51.244;6.774;2023-02-11T07:16:18;26.03;;;16.17;;
12356;SDS011;6243;51.244;6.774;2023-02-11T07:18:45;23.90;;;15.03;;
12356;SDS011;6243;51.244;6.774;2023-02-11T07:21:12;25.67;;;15.57;;
12356;SDS011;6243;51.244;6.774;2023-02-11T07:23:39;29.60;;;17.10;;
12356;SDS011;6243;51.244;6.774;2023-02-11T07:26:05;26.60;;;16.23;;
12356;SDS011;6243;51.244;6.774;2023-02-11T07:28:32;23.80;;;14.77;;
12356;SDS011;6243;51.244;6.774;2023-02-11T07:30:59;23.30;;;15.30;;
12356;SDS011;6243;51.244;6.774;2023-02-11T07:33:30;25.83;;;16.20;;
12356;SDS011;6243;51.244;6.774;2023-02-11T07:35:58;29.60;;;16.20;;
12356;SDS011;6243;51.244;6.774;2023-02-11T07:38:24;25.23;;;15.23;;
12356;SDS011;6243;51.244;6.774;2023-02-11T07:40:49;25.67;;;15.03;;
12356;SDS011;6243;51.244;6.774;2023-02-11T07:43:15;27.97;;;15.90;;
12356;SDS011;6243;51.244;6.774;2023-02-11T07:45:40;28.43;;;16.60;;
12356;SDS011;6243;51.244;6.774;2023-02-11T07:48:07;27.37;;;16.97;;
12356;SDS011;6243;51.244;6.774;2023-02-11T07:50:33;25.13;;;15.97;;
12356;SDS011;6243;51.244;6.774;2023-02-11T07:52:58;27.60;;;15.77;;
12356;SDS011;6243;51.244;6.774;2023-02-11T07:55:24;27.67;;;17.30;;
12356;SDS011;6243;51.244;6.774;2023-02-11T07:57:49;28.50;;;16.23;;
12356;SDS011;6243;51.244;6.774;2023-02-11T08:00:15;28.33;;;16.57;;
12356;SDS011;6243;51.244;6.774;2023-02-11T08:02:41;26.20;;;15.23;;
12356;SDS011;6243;51.244;6.774;2023-02-11T08:05:08;25.90;;;16.00;;
12356;SDS011;6243;51.244;6.774;2023-02-11T08:07:34;28.70;;;17.60;;
12356;SDS011;6243;51.244;6.774;2023-02-11T08:09:59;32.63;;;17.00;;
12356;SDS011;6243;51.244;6.774;2023-02-11T08:12:24;29.40;;;17.13;;
12356;SDS011;6243;51.244;6.774;2023-02-11T08:14:50;32.80;;;17.83;;
12356;SDS011;6243;51.244;6.774;2023-02-11T08:17:15;26.07;;;15.13;;
12356;SDS011;6243;51.244;6.774;2023-02-11T08:19:41;33.27;;;17.63;;
12356;SDS011;6243;51.244;6.774;2023-02-11T08:22:08;35.63;;;18.57;;
12356;SDS011;6243;51.244;6.774;2023-02-11T08:24:34;30.03;;;17.03;;
12356;SDS011;6243;51.244;6.774;2023-02-11T08:26:59;26.03;;;17.07;;
12356;SDS011;6243;51.244;6.774;2023-02-11T08:29:25;32.93;;;18.83;;
12356;SDS011;6243;51.244;6.774;2023-02-11T08:31:50;27.17;;;16.50;;
12356;SDS011;6243;51.244;6.774;2023-02-11T08:34:16;28.27;;;17.43;;
12356;SDS011;6243;51.244;6.774;2023-02-11T08:36:42;30.67;;;17.87;;
12356;SDS011;6243;51.244;6.774;2023-02-11T08:39:11;34.00;;;18.80;;
12356;SDS011;6243;51.244;6.774;2023-02-11T08:41:38;35.30;;;17.73;;
12356;SDS011;6243;51.244;6.774;2023-02-11T08:44:04;37.00;;;19.00;;
12356;SDS011;6243;51.244;6.774;2023-02-11T08:46:29;29.90;;;17.77;;
12356;SDS011;6243;51.244;6.774;2023-02-11T08:48:55;29.63;;;16.60;;
12356;SDS011;6243;51.244;6.774;2023-02-11T08:51:22;29.93;;;18.70;;
12356;SDS011;6243;51.244;6.774;2023-02-11T08:53:50;32.20;;;18.57;;
12356;SDS011;6243;51.244;6.774;2023-02-11T08:56:18;32.97;;;19.77;;
12356;SDS011;6243;51.244;6.774;2023-02-11T08:58:44;31.63;;;18.13;;
12356;SDS011;6243;51.244;6.774;2023-02-11T09:01:10;30.57;;;18.97;;
12356;SDS011;6243;51.244;6.774;2023-02-11T09:03:36;32.83;;;18.97;;
12356;SDS011;6243;51.244;6.774;2023-02-11T09:06:03;32.63;;;18.83;;
12356;SDS011;6243;51.244;6.774;2023-02-11T09:08:29;32.47;;;18.70;;
12356;SDS011;6243;51.244;6.774;2023-02-11T09:10:55;35.63;;;20.17;;
12356;SDS011;6243;51.244;6.774;2023-02-11T09:13:22;29.93;;;18.83;;
12356;SDS011;6243;51.244;6.774;2023-02-11T09:15:47;36.93;;;19.83;;
12356;SDS011;6243;51.244;6.774;2023-02-11T09:18:13;30.23;;;19.10;;
12356;SDS011;6243;51.244;6.774;2023-02-11T09:20:39;36.07;;;19.77;;
12356;SDS011;6243;51.244;6.774;2023-02-11T09:23:05;35.03;;;20.13;;
12356;SDS011;6243;51.244;6.774;2023-02-11T09:25:31;35.87;;;20.53;;
12356;SDS011;6243;51.244;6.774;2023-02-11T09:27:56;31.93;;;19.60;;
12356;SDS011;6243;51.244;6.774;2023-02-11T09:30:23;32.40;;;19.80;;
12356;SDS011;6243;51.244;6.774;2023-02-11T09:32:49;34.87;;;20.47;;
12356;SDS011;6243;51.244;6.774;2023-02-11T09:35:15;35.13;;;19.73;;
12356;SDS011;6243;51.244;6.774;2023-02-11T09:37:40;34.73;;;19.73;;
12356;SDS011;6243;51.244;6.774;2023-02-11T09:40:06;30.50;;;19.17;;
12356;SDS011;6243;51.244;6.774;2023-02-11T09:42:37;41.33;;;20.77;;
12356;SDS011;6243;51.244;6.774;2023-02-11T09:45:13;34.10;;;21.23;;
12356;SDS011;6243;51.244;6.774;2023-02-11T09:47:47;33.23;;;21.60;;
12356;SDS011;6243;51.244;6.774;2023-02-11T09:50:17;32.03;;;18.77;;
12356;SDS011;6243;51.244;6.774;2023-02-11T09:52:49;34.47;;;21.17;;
12356;SDS011;6243;51.244;6.774;2023-02-11T09:55:20;28.07;;;19.00;;
12356;SDS011;6243;51.244;6.774;2023-02-11T09:57:49;32.43;;;20.07;;
12356;SDS011;6243;51.244;6.774;2023-02-11T10:00:16;34.10;;;19.93;;
12356;SDS011;6243;51.244;6.774;2023-02-11T10:02:52;37.77;;;21.73;;
12356;SDS011;6243;51.244;6.774;2023-02-11T10:05:28;31.83;;;19.73;;
12356;SDS011;6243;51.244;6.774;2023-02-11T10:08:10;29.43;;;19.60;;
12356;SDS011;6243;51.244;6.774;2023-02-11T10:10:44;33.17;;;20.07;;
12356;SDS011;6243;51.244;6.774;2023-02-11T10:13:20;33.13;;;20.80;;
12356;SDS011;6243;51.244;6.774;2023-02-11T10:15:57;34.83;;;20.87;;
12356;SDS011;6243;51.244;6.774;2023-02-11T10:18:48;32.13;;;20.63;;
12356;SDS011;6243;51.244;6.774;2023-02-11T10:21:24;30.50;;;20.13;;
12356;SDS011;6243;51.244;6.774;2023-02-11T10:23:58;35.10;;;19.83;;
12356;SDS011;6243;51.244;6.774;2023-02-11T10:26:26;31.73;;;18.67;;
12356;SDS011;6243;51.244;6.774;2023-02-11T10:28:54;33.70;;;20.00;;
12356;SDS011;6243;51.244;6.774;2023-02-11T10:34:01;30.03;;;20.77;;
12356;SDS011;6243;51.244;6.774;2023-02-11T10:36:29;34.23;;;21.03;;
12356;SDS011;6243;51.244;6.774;2023-02-11T10:38:59;34.17;;;20.83;;
12356;SDS011;6243;51.244;6.774;2023-02-11T10:41:27;33.83;;;20.87;;
12356;SDS011;6243;51.244;6.774;2023-02-11T10:43:57;31.33;;;21.17;;
12356;SDS011;6243;51.244;6.774;2023-02-11T10:46:24;32.87;;;21.77;;
12356;SDS011;6243;51.244;6.774;2023-02-11T10:48:55;33.90;;;20.10;;
12356;SDS011;6243;51.244;6.774;2023-02-11T10:51:22;33.03;;;21.03;;
12356;SDS011;6243;51.244;6.774;2023-02-11T10:53:50;34.60;;;21.60;;
12356;SDS011;6243;51.244;6.774;2023-02-11T10:56:36;35.80;;;21.93;;
12356;SDS011;6243;51.244;6.774;2023-02-11T10:59:04;31.67;;;21.00;;
12356;SDS011;6243;51.244;6.774;2023-02-11T11:01:39;35.27;;;21.17;;
12356;SDS011;6243;51.244;6.774;2023-02-11T11:04:05;36.27;;;21.43;;
12356;SDS011;6243;51.244;6.774;2023-02-11T11:09:54;34.33;;;21.13;;
12356;SDS011;6243;51.244;6.774;2023-02-11T11:12:26;34.67;;;21.17;;
12356;SDS011;6243;51.244;6.774;2023-02-11T11:14:54;33.93;;;20.97;;
12356;SDS011;6243;51.244;6.774;2023-02-11T11:17:21;31.53;;;20.90;;
12356;SDS011;6243;51.244;6.774;2023-02-11T11:19:46;33.57;;;21.03;;
12356;SDS011;6243;51.244;6.774;2023-02-11T11:22:18;35.23;;;21.70;;
12356;SDS011;6243;51.244;6.774;2023-02-11T11:24:46;37.40;;;22.60;;
12356;SDS011;6243;51.244;6.774;2023-02-11T11:27:16;35.43;;;22.23;;
12356;SDS011;6243;51.244;6.774;2023-02-11T11:29:44;36.87;;;21.33;;
12356;SDS011;6243;51.244;6.774;2023-02-11T11:32:12;33.30;;;21.90;;
12356;SDS011;6243;51.244;6.774;2023-02-11T11:34:47;38.70;;;21.73;;
12356;SDS011;6243;51.244;6.774;2023-02-11T11:37:18;38.30;;;20.70;;
12356;SDS011;6243;51.244;6.774;2023-02-11T11:39:49;37.87;;;22.57;;
12356;SDS011;6243;51.244;6.774;2023-02-11T11:42:23;37.87;;;22.10;;
12356;SDS011;6243;51.244;6.774;2023-02-11T11:44:54;36.83;;;21.47;;
12356;SDS011;6243;51.244;6.774;2023-02-11T11:47:24;39.83;;;22.93;;
12356;SDS011;6243;51.244;6.774;2023-02-11T11:50:02;39.17;;;22.67;;
12356;SDS011;6243;51.244;6.774;2023-02-11T11:52:40;40.97;;;22.70;;
12356;SDS011;6243;51.244;6.774;2023-02-11T11:55:13;33.70;;;22.93;;
12356;SDS011;6243;51.244;6.774;2023-02-11T11:57:42;44.90;;;24.30;;
12356;SDS011;6243;51.244;6.774;2023-02-11T12:00:13;40.10;;;24.67;;
12356;SDS011;6243;51.244;6.774;2023-02-11T12:02:48;40.37;;;24.37;;
12356;SDS011;6243;51.244;6.774;2023-02-11T12:05:33;42.57;;;25.87;;
12356;SDS011;6243;51.244;6.774;2023-02-11T12:08:04;39.30;;;24.07;;
12356;SDS011;6243;51.244;6.774;2023-02-11T12:10:43;40.77;;;24.90;;
12356;SDS011;6243;51.244;6.774;2023-02-11T12:13:22;41.03;;;25.53;;
12356;SDS011;6243;51.244;6.774;2023-02-11T12:15:56;41.47;;;24.07;;
12356;SDS011;6243;51.244;6.774;2023-02-11T12:18:35;43.10;;;25.93;;
12356;SDS011;6243;51.244;6.774;2023-02-11T12:21:17;43.00;;;25.07;;
12356;SDS011;6243;51.244;6.774;2023-02-11T12:23:55;38.77;;;25.30;;
12356;SDS011;6243;51.244;6.774;2023-02-11T12:26:33;41.07;;;25.07;;
12356;SDS011;6243;51.244;6.774;2023-02-11T12:29:06;40.20;;;24.37;;
12356;SDS011;6243;51.244;6.774;2023-02-11T12:31:40;42.23;;;25.33;;
12356;SDS011;6243;51.244;6.774;2023-02-11T12:34:23;37.63;;;24.70;;
12356;SDS011;6243;51.244;6.774;2023-02-11T12:37:01;37.23;;;23.93;;
12356;SDS011;6243;51.244;6.774;2023-02-11T12:39:32;40.70;;;24.17;;
12356;SDS011;6243;51.244;6.774;2023-02-11T12:45:04;38.87;;;23.73;;
12356;SDS011;6243;51.244;6.774;2023-02-11T12:47:49;40.27;;;25.13;;
12356;SDS011;6243;51.244;6.774;2023-02-11T12:50:25;40.53;;;25.00;;
12356;SDS011;6243;51.244;6.774;2023-02-11T12:53:02;39.57;;;24.23;;
12356;SDS011;6243;51.244;6.774;2023-02-11T12:55:50;42.63;;;25.80;;
12356;SDS011;6243;51.244;6.774;2023-02-11T12:58:21;42.63;;;23.30;;
12356;SDS011;6243;51.244;6.774;2023-02-11T13:00:51;38.30;;;25.33;;
12356;SDS011;6243;51.244;6.774;2023-02-11T13:03:21;35.60;;;23.17;;
12356;SDS011;6243;51.244;6.774;2023-02-11T13:05:50;38.93;;;23.37;;
12356;SDS011;6243;51.244;6.774;2023-02-11T13:08:18;38.27;;;23.60;;
12356;SDS011;6243;51.244;6.774;2023-02-11T13:10:51;39.20;;;23.57;;
12356;SDS011;6243;51.244;6.774;2023-02-11T13:13:22;39.97;;;24.73;;
12356;SDS011;6243;51.244;6.774;2023-02-11T13:15:53;39.23;;;24.30;;
12356;SDS011;6243;51.244;6.774;2023-02-11T13:18:31;40.07;;;23.40;;
12356;SDS011;6243;51.244;6.774;2023-02-11T13:21:14;35.77;;;23.27;;
12356;SDS011;6243;51.244;6.774;2023-02-11T13:23:58;38.63;;;23.03;;
12356;SDS011;6243;51.244;6.774;2023-02-11T13:26:32;39.70;;;23.40;;
12356;SDS011;6243;51.244;6.774;2023-02-11T13:29:12;35.27;;;23.43;;
12356;SDS011;6243;51.244;6.774;2023-02-11T13:31:51;40.50;;;24.50;;
12356;SDS011;6243;51.244;6.774;2023-02-11T13:34:24;36.10;;;22.43;;
12356;SDS011;6243;51.244;6.774;2023-02-11T13:37:12;39.60;;;23.53;;
12356;SDS011;6243;51.244;6.774;2023-02-11T13:39:54;40.60;;;24.27;;
12356;SDS011;6243;51.244;6.774;2023-02-11T13:42:20;38.93;;;24.37;;
12356;SDS011;6243;51.244;6.774;2023-02-11T13:44:47;45.07;;;24.83;;
12356;SDS011;6243;51.244;6.774;2023-02-11T13:47:19;38.03;;;23.57;;
12356;SDS011;6243;51.244;6.774;2023-02-11T13:49:50;39.90;;;24.60;;
12356;SDS011;6243;51.244;6.774;2023-02-11T13:52:18;39.50;;;23.83;;
12356;SDS011;6243;51.244;6.774;2023-02-11T13:54:48;36.63;;;24.03;;
12356;SDS011;6243;51.244;6.774;2023-02-11T13:57:21;34.47;;;22.83;;
12356;SDS011;6243;51.244;6.774;2023-02-11T13:59:57;35.73;;;23.27;;
12356;SDS011;6243;51.244;6.774;2023-02-11T14:02:25;39.87;;;25.57;;
12356;SDS011;6243;51.244;6.774;2023-02-11T14:05:11;36.33;;;22.67;;
12356;SDS011;6243;51.244;6.774;2023-02-11T14:10:48;38.30;;;22.27;;
12356;SDS011;6243;51.244;6.774;2023-02-11T14:13:19;39.43;;;23.47;;
12356;SDS011;6243;51.244;6.774;2023-02-11T14:15:50;35.97;;;24.47;;
12356;SDS011;6243;51.244;6.774;2023-02-11T14:21:29;36.77;;;24.30;;
12356;SDS011;6243;51.244;6.774;2023-02-11T14:26:57;41.30;;;24.53;;
12356;SDS011;6243;51.244;6.774;2023-02-11T14:29:29;36.10;;;22.93;;
12356;SDS011;6243;51.244;6.774;2023-02-11T14:32:01;39.20;;;23.93;;
12356;SDS011;6243;51.244;6.774;2023-02-11T14:34:39;38.57;;;24.97;;
12356;SDS011;6243;51.244;6.774;2023-02-11T14:37:21;37.13;;;24.63;;
12356;SDS011;6243;51.244;6.774;2023-02-11T14:39:59;37.87;;;23.30;;
12356;SDS011;6243;51.244;6.774;2023-02-11T14:42:33;38.17;;;23.63;;
12356;SDS011;6243;51.244;6.774;2023-02-11T14:45:02;39.00;;;24.97;;
12356;SDS011;6243;51.244;6.774;2023-02-11T14:47:35;36.07;;;24.23;;
12356;SDS011;6243;51.244;6.774;2023-02-11T14:50:05;36.13;;;23.90;;
12356;SDS011;6243;51.244;6.774;2023-02-11T14:52:38;38.30;;;24.63;;
12356;SDS011;6243;51.244;6.774;2023-02-11T14:55:05;35.20;;;24.37;;
12356;SDS011;6243;51.244;6.774;2023-02-11T14:57:42;35.60;;;22.63;;
12356;SDS011;6243;51.244;6.774;2023-02-11T15:00:13;40.17;;;23.10;;
12356;SDS011;6243;51.244;6.774;2023-02-11T15:02:43;37.77;;;24.03;;
12356;SDS011;6243;51.244;6.774;2023-02-11T15:05:16;36.60;;;23.23;;
12356;SDS011;6243;51.244;6.774;2023-02-11T15:07:45;39.37;;;23.70;;
12356;SDS011;6243;51.244;6.774;2023-02-11T15:10:20;35.93;;;23.33;;
12356;SDS011;6243;51.244;6.774;2023-02-11T15:12:52;37.23;;;23.87;;